La Grange, TX

9:19 AM CDT on July 07, 2015 (GMT -0500)
Horton Street | | Change Station
CLOSE
Current Station
Personal Weather Station
Location: La Grange, TX
Elevation: 344 ft
Nearby Weather Stations

Elev 344 ft 29.92 °N, 96.87 °W | Updated 9 seconds ago

Partly Cloudy
Partly Cloudy
83.3 °F
Feels Like 95 °F
N
7.4
Wind Variable Wind from South
Gusts 9.8 mph

Today
High -- | Low -- °F
--% Chance of Precip.
Yesterday
High -- | Low -- °F
Precip. -- in
6:32 AM 8:32 PM
Waning Gibbous, 64% visible
Pressure 29.99 in
Visibility 7.0 miles
Clouds Scattered Clouds 1400 ft
Scattered Clouds 2100 ft
Scattered Clouds 2700 ft
Heat Index 95 °F
Dew Point 79 °F
Humidity 87%
Rainfall 0.00 in
Snow Depth Not available.
UV 3.0 out of 12
Pollen 2.30 out of 12
Air Quality Not available.
Flu Activity Not available.
METAR K3T5 071350Z AUTO 17011G15KT 7SM SCT014 SCT021 SCT027 29/26 A2999 RMK AO2 T02890259

More Conditions Fewer Conditions

Pressure 29.99 in
Visibility 7.0 miles
Clouds Scattered Clouds 1400 ft
Scattered Clouds 2100 ft
Scattered Clouds 2700 ft
Heat Index 95 °F
Dew Point 79 °F
Humidity 87%
Rainfall 0.00 in
Snow Depth Not available.
UV 3.0 out of 12
Pollen 2.30 out of 12
Air Quality Not available.
Flu Activity Not available.
METAR K3T5 071350Z AUTO 17011G15KT 7SM SCT014 SCT021 SCT027 29/26 A2999 RMK AO2 T02890259

More Conditions Fewer Conditions

10-Day Weather Forecast

×

Almanac

Astronomy

Jul. 07, 2015 Rise Set
Actual Time
Civil Twilight
Nautical Twilight
Astronomical Twilight
Moon
Length of Visible Light
Length of Day
Tomorrow will be .
, % of the Moon is Illuminated

Today's Extremes

State Highs State Lows

Community

WunderPhotos

Upload Photos

1,835,803 photos uploaded!

WunderBlogs® & News

Nearby

Air Quality

  Air Quality AQ Index Pollutant
Not available.

Snow Depth

Station Depth Elevation

Earthquake Activity

City Distance Mag. Time & Date
Minimum magnitude displayed is 2.5.

Coastal Water Temperatures

Place Temperature

Stations

Nearby Weather Stations

Station Location Temp. Windchill Dew Point Humidity Wind Precip. Elev Updated Type